createdAt,value
2023-01-20T00:00:39.927Z,1.14
2023-01-20T00:01:39.904Z,1.14
2023-01-20T00:02:40.016Z,1.15
2023-01-20T00:03:39.944Z,1.16
2023-01-20T00:04:39.897Z,1.15
2023-01-20T00:05:39.857Z,1.15
2023-01-20T00:06:40.082Z,1.16
2023-01-20T00:07:39.812Z,1.14
2023-01-20T00:08:39.793Z,1.16
2023-01-20T00:09:39.853Z,1.15
2023-01-20T00:10:40.491Z,1.16
2023-01-20T00:11:39.755Z,1.15
2023-01-20T00:12:39.731Z,1.15
2023-01-20T00:13:40.041Z,1.14
2023-01-20T00:14:39.740Z,1.15
2023-01-20T00:15:39.831Z,1.15
2023-01-20T00:16:39.693Z,1.15
2023-01-20T00:17:39.692Z,1.14
2023-01-20T00:18:39.680Z,1.14
2023-01-20T00:19:39.664Z,1.14
2023-01-20T00:20:39.960Z,1.15
2023-01-20T00:21:39.698Z,1.12
2023-01-20T00:22:39.672Z,1.15
2023-01-20T00:23:39.651Z,1.12
2023-01-20T00:24:39.619Z,1.15
2023-01-20T00:25:39.617Z,1.14
2023-01-20T00:26:39.605Z,1.14
2023-01-20T00:27:39.960Z,1.12
2023-01-20T00:28:39.652Z,1.14
2023-01-20T00:29:39.665Z,1.12
2023-01-20T00:30:39.631Z,1.15
2023-01-20T00:31:39.667Z,1.15
2023-01-20T00:32:39.527Z,1.15
2023-01-20T00:33:39.575Z,1.16
2023-01-20T00:34:39.808Z,1.16
2023-01-20T00:35:39.523Z,1.19
2023-01-20T00:36:39.496Z,1.19
2023-01-20T00:37:39.489Z,1.19
2023-01-20T00:38:39.465Z,1.19
2023-01-20T00:39:39.546Z,1.22
2023-01-20T00:40:39.474Z,1.22
2023-01-20T00:41:39.724Z,1.21
2023-01-20T00:42:39.425Z,1.22
2023-01-20T00:43:39.442Z,1.22
2023-01-20T00:44:39.419Z,1.25
2023-01-20T00:45:39.480Z,1.22
2023-01-20T00:46:39.463Z,1.22
2023-01-20T00:47:39.396Z,1.24
2023-01-20T00:48:39.653Z,1.24
2023-01-20T00:49:39.365Z,1.25
2023-01-20T00:50:39.368Z,1.25
2023-01-20T00:51:39.395Z,1.26
2023-01-20T00:52:39.343Z,1.26
2023-01-20T00:53:39.354Z,1.26
2023-01-20T00:54:39.317Z,1.29
2023-01-20T00:55:39.303Z,1.28
2023-01-20T00:56:39.300Z,1.28
2023-01-20T00:57:39.334Z,1.29
2023-01-20T00:58:39.310Z,1.29
2023-01-20T00:59:39.267Z,1.29
2023-01-20T01:00:39.332Z,1.28
2023-01-20T01:01:39.616Z,1.32
2023-01-20T01:02:39.234Z,1.32
2023-01-20T01:03:39.246Z,1.33
2023-01-20T01:04:39.195Z,1.32
2023-01-20T01:05:39.195Z,1.32
2023-01-20T01:06:39.238Z,1.28
2023-01-20T01:07:39.191Z,1.29
2023-01-20T01:08:39.482Z,1.32
2023-01-20T01:09:39.250Z,1.33
2023-01-20T01:10:39.144Z,1.33
2023-01-20T01:11:39.131Z,1.34
2023-01-20T01:12:39.123Z,1.36
2023-01-20T01:13:39.176Z,1.37
2023-01-20T01:14:39.125Z,1.36
2023-01-20T01:15:39.391Z,1.37
2023-01-20T01:16:39.101Z,1.34
2023-01-20T01:17:39.093Z,1.34
2023-01-20T01:18:39.084Z,1.36
2023-01-20T01:19:39.095Z,1.36
2023-01-20T01:20:39.069Z,1.36
2023-01-20T01:21:39.129Z,1.33
2023-01-20T01:22:39.321Z,1.33
2023-01-20T01:23:39.033Z,1.32
2023-01-20T01:24:39.054Z,1.33
2023-01-20T01:25:39.011Z,1.32
2023-01-20T01:26:38.990Z,1.32
2023-01-20T01:27:39.020Z,1.33
2023-01-20T01:28:38.953Z,1.33
2023-01-20T01:29:39.231Z,1.34
2023-01-20T01:30:38.965Z,1.36
2023-01-20T01:31:39.086Z,1.37
2023-01-20T01:32:38.925Z,1.36
2023-01-20T01:33:39.022Z,1.37
2023-01-20T01:34:38.899Z,1.37
2023-01-20T01:35:38.901Z,1.36
2023-01-20T01:36:39.181Z,1.34
2023-01-20T01:37:38.911Z,1.33
2023-01-20T01:38:38.852Z,1.37
2023-01-20T01:39:38.875Z,1.34
2023-01-20T01:40:38.830Z,1.36
2023-01-20T01:41:38.834Z,1.33
2023-01-20T01:42:38.809Z,1.32
2023-01-20T01:43:39.087Z,1.29
2023-01-20T01:44:38.784Z,1.32
2023-01-20T01:45:38.903Z,1.33
2023-01-20T01:46:38.773Z,1.33
2023-01-20T01:47:38.828Z,1.33
2023-01-20T01:48:38.742Z,1.33
2023-01-20T01:49:38.737Z,1.33
2023-01-20T01:50:39.788Z,1.32
2023-01-20T01:51:38.741Z,1.32
2023-01-20T01:52:38.712Z,1.32
2023-01-20T01:53:38.690Z,1.33
2023-01-20T01:54:38.713Z,1.33
2023-01-20T01:55:38.673Z,1.33
2023-01-20T01:56:38.682Z,1.32
2023-01-20T01:57:39.002Z,1.29
2023-01-20T01:58:38.645Z,1.28
2023-01-20T01:59:39.367Z,1.28
2023-01-20T02:00:38.659Z,1.28
2023-01-20T02:01:38.637Z,1.28
2023-01-20T02:02:38.685Z,1.28
2023-01-20T02:03:38.624Z,1.29
2023-01-20T02:04:38.879Z,1.32
2023-01-20T02:05:38.582Z,1.33
2023-01-20T02:06:38.611Z,1.33
2023-01-20T02:07:38.561Z,1.33
2023-01-20T02:08:38.599Z,1.33
2023-01-20T02:09:38.558Z,1.34
2023-01-20T02:10:38.537Z,1.34
2023-01-20T02:11:38.805Z,1.36
2023-01-20T02:12:38.507Z,1.36
2023-01-20T02:13:38.506Z,1.34
2023-01-20T02:14:38.487Z,1.34
2023-01-20T02:15:38.516Z,1.39
2023-01-20T02:16:38.575Z,1.37
2023-01-20T02:17:38.463Z,1.37
2023-01-20T02:18:38.710Z,1.37
2023-01-20T02:19:38.423Z,1.39
2023-01-20T02:20:38.425Z,1.40
2023-01-20T02:21:38.450Z,1.40
2023-01-20T02:22:38.383Z,1.40
2023-01-20T02:23:38.412Z,1.39
2023-01-20T02:24:38.384Z,1.40
2023-01-20T02:25:38.643Z,1.40
2023-01-20T02:26:38.362Z,1.40
2023-01-20T02:27:38.377Z,1.42
2023-01-20T02:28:38.328Z,1.42
2023-01-20T02:29:38.330Z,1.42
2023-01-20T02:30:38.330Z,1.43
2023-01-20T02:31:38.374Z,1.43
2023-01-20T02:32:38.615Z,1.42
2023-01-20T02:33:38.336Z,1.43
2023-01-20T02:34:38.269Z,1.42
2023-01-20T02:35:38.281Z,1.40
2023-01-20T02:36:38.253Z,1.40
2023-01-20T02:37:38.244Z,1.40
2023-01-20T02:38:38.236Z,1.40
2023-01-20T02:39:38.574Z,1.40
2023-01-20T02:40:38.210Z,1.40
2023-01-20T02:41:38.207Z,1.42
2023-01-20T02:42:38.201Z,1.42
2023-01-20T02:43:38.192Z,1.43
2023-01-20T02:44:38.177Z,1.40
2023-01-20T02:45:38.228Z,1.42
2023-01-20T02:46:38.433Z,1.40
2023-01-20T02:47:38.140Z,1.43
2023-01-20T02:48:38.144Z,1.42
2023-01-20T02:49:38.131Z,1.42
2023-01-20T02:50:38.099Z,1.42
2023-01-20T02:51:38.163Z,1.40
2023-01-20T02:52:38.098Z,1.42
2023-01-20T02:53:38.352Z,1.40
2023-01-20T02:54:38.077Z,1.40
2023-01-20T02:55:38.063Z,1.39
2023-01-20T02:56:38.045Z,1.39
2023-01-20T02:57:38.073Z,1.37
2023-01-20T02:58:38.031Z,1.39
2023-01-20T02:59:38.034Z,1.39
2023-01-20T03:00:38.297Z,1.40
2023-01-20T03:01:38.079Z,1.42
2023-01-20T03:02:37.989Z,1.40
2023-01-20T03:03:38.033Z,1.37
2023-01-20T03:04:37.971Z,1.40
2023-01-20T03:05:38.058Z,1.39
2023-01-20T03:06:37.962Z,1.37
2023-01-20T03:07:38.225Z,1.39
2023-01-20T03:08:37.962Z,1.39
2023-01-20T03:09:37.973Z,1.42
2023-01-20T03:10:37.906Z,1.43
2023-01-20T03:11:37.889Z,1.43
2023-01-20T03:12:37.899Z,1.43
2023-01-20T03:13:37.868Z,1.42
2023-01-20T03:14:38.166Z,1.42
2023-01-20T03:15:37.887Z,1.42
2023-01-20T03:16:37.895Z,1.43
2023-01-20T03:17:37.851Z,1.40
2023-01-20T03:18:37.854Z,1.43
2023-01-20T03:19:37.833Z,1.43
2023-01-20T03:20:37.802Z,1.43
2023-01-20T03:21:38.127Z,1.44
2023-01-20T03:22:37.801Z,1.46
2023-01-20T03:23:37.761Z,1.44
2023-01-20T03:24:37.789Z,1.42
2023-01-20T03:25:37.754Z,1.43
2023-01-20T03:26:37.757Z,1.43
2023-01-20T03:27:37.761Z,1.46
2023-01-20T03:28:38.045Z,1.44
2023-01-20T03:29:37.703Z,1.46
2023-01-20T03:30:37.768Z,1.46
2023-01-20T03:31:37.833Z,1.43
2023-01-20T03:32:37.681Z,1.43
2023-01-20T03:33:37.716Z,1.43
2023-01-20T03:34:37.682Z,1.42
2023-01-20T03:35:37.645Z,1.44
2023-01-20T03:36:37.645Z,1.43
2023-01-20T03:37:37.616Z,1.43
2023-01-20T03:38:37.618Z,1.43
2023-01-20T03:39:38.538Z,1.43
2023-01-20T03:40:37.894Z,1.44
2023-01-20T03:41:37.595Z,1.43
2023-01-20T03:42:37.627Z,1.44
2023-01-20T03:43:37.594Z,1.46
2023-01-20T03:44:37.564Z,1.44
2023-01-20T03:45:37.606Z,1.44
2023-01-20T03:46:37.531Z,1.44
2023-01-20T03:47:37.529Z,1.43
2023-01-20T03:48:37.510Z,1.44
2023-01-20T03:49:37.507Z,1.46
2023-01-20T03:50:37.495Z,1.43
2023-01-20T03:51:37.502Z,1.46
2023-01-20T03:52:48.076Z,1.44
2023-01-20T03:53:37.492Z,1.44
2023-01-20T03:54:37.445Z,1.46
2023-01-20T03:55:37.437Z,1.46
2023-01-20T03:56:37.468Z,1.44
2023-01-20T03:57:37.730Z,1.44
2023-01-20T03:58:37.409Z,1.44
2023-01-20T03:59:37.675Z,1.46
2023-01-20T04:00:37.383Z,1.44
2023-01-20T04:01:37.470Z,1.46
2023-01-20T04:02:37.371Z,1.44
2023-01-20T04:03:37.460Z,1.44
2023-01-20T04:04:37.368Z,1.46
2023-01-20T04:05:37.342Z,1.43
2023-01-20T04:06:37.613Z,1.46
2023-01-20T04:07:37.317Z,1.40
2023-01-20T04:08:37.315Z,1.43
2023-01-20T04:09:37.335Z,1.44
2023-01-20T04:10:37.291Z,1.43
2023-01-20T04:11:37.321Z,1.46
2023-01-20T04:12:37.258Z,1.46
2023-01-20T04:13:37.557Z,1.46
2023-01-20T04:14:37.290Z,1.51
2023-01-20T04:15:37.318Z,1.47
2023-01-20T04:16:37.225Z,1.50
2023-01-20T04:17:37.210Z,1.47
2023-01-20T04:18:37.203Z,1.47
2023-01-20T04:19:37.196Z,1.47
2023-01-20T04:20:37.462Z,1.47
2023-01-20T04:21:37.253Z,1.47
2023-01-20T04:22:37.162Z,1.46
2023-01-20T04:23:37.147Z,1.47
2023-01-20T04:24:37.136Z,1.50
2023-01-20T04:25:37.130Z,1.50
2023-01-20T04:26:37.118Z,1.50
2023-01-20T04:27:37.440Z,1.51
2023-01-20T04:28:37.105Z,1.52
2023-01-20T04:29:37.090Z,1.51
2023-01-20T04:30:37.160Z,1.54
2023-01-20T04:31:37.234Z,1.55
2023-01-20T04:32:37.055Z,1.54
2023-01-20T04:33:37.077Z,1.52
2023-01-20T04:34:37.313Z,1.54
2023-01-20T04:35:37.030Z,1.57
2023-01-20T04:36:37.031Z,1.54
2023-01-20T04:37:37.001Z,1.54
2023-01-20T04:38:36.997Z,1.54
2023-01-20T04:39:37.065Z,1.55
2023-01-20T04:40:36.985Z,1.54
2023-01-20T04:41:37.258Z,1.54
2023-01-20T04:42:36.957Z,1.55
2023-01-20T04:43:36.951Z,1.52
2023-01-20T04:44:36.958Z,1.55
2023-01-20T04:45:36.980Z,1.54
2023-01-20T04:46:37.327Z,1.54
2023-01-20T04:47:36.908Z,1.54
2023-01-20T04:48:37.184Z,1.51
2023-01-20T04:49:36.879Z,1.46
2023-01-20T04:50:36.867Z,1.46
2023-01-20T04:51:36.886Z,1.47
2023-01-20T04:52:36.846Z,1.44
2023-01-20T04:53:36.853Z,1.46
2023-01-20T04:54:36.838Z,1.47
2023-01-20T04:55:37.100Z,1.46
2023-01-20T04:56:36.842Z,1.44
2023-01-20T04:57:36.838Z,1.46
2023-01-20T04:58:36.787Z,1.47
2023-01-20T04:59:36.783Z,1.50
2023-01-20T05:00:36.784Z,1.47
2023-01-20T05:01:36.891Z,1.46
2023-01-20T05:02:37.145Z,1.47
2023-01-20T05:03:36.784Z,1.47
2023-01-20T05:04:36.736Z,1.50
2023-01-20T05:05:36.727Z,1.51
2023-01-20T05:06:36.711Z,1.51
2023-01-20T05:07:36.688Z,1.47
2023-01-20T05:08:36.719Z,1.50
2023-01-20T05:09:37.012Z,1.51
2023-01-20T05:10:36.691Z,1.51
2023-01-20T05:11:36.676Z,1.52
2023-01-20T05:12:36.650Z,1.50
2023-01-20T05:13:36.635Z,1.50
2023-01-20T05:14:36.642Z,1.50
2023-01-20T05:15:36.685Z,1.47
2023-01-20T05:16:36.895Z,1.50
2023-01-20T05:17:36.607Z,1.50
2023-01-20T05:18:36.589Z,1.47
2023-01-20T05:19:36.572Z,1.50
2023-01-20T05:20:36.614Z,1.50
2023-01-20T05:21:36.611Z,1.51
2023-01-20T05:22:36.553Z,1.50
2023-01-20T05:23:36.831Z,1.46
2023-01-20T05:24:36.541Z,1.47
2023-01-20T05:25:36.505Z,1.50
2023-01-20T05:26:36.573Z,1.50
2023-01-20T05:27:36.661Z,1.50
2023-01-20T05:28:36.558Z,1.47
2023-01-20T05:29:36.532Z,1.47
2023-01-20T05:30:36.827Z,1.44
2023-01-20T05:31:36.529Z,1.46
2023-01-20T05:32:36.445Z,1.47
2023-01-20T05:33:36.478Z,1.47
2023-01-20T05:34:36.424Z,1.46
2023-01-20T05:35:36.437Z,1.50
2023-01-20T05:36:36.412Z,1.47
2023-01-20T05:37:36.654Z,1.50
2023-01-20T05:38:36.378Z,1.50
2023-01-20T05:39:36.396Z,1.47
2023-01-20T05:40:36.375Z,1.47
2023-01-20T05:41:36.361Z,1.47
2023-01-20T05:42:36.331Z,1.50
2023-01-20T05:43:36.334Z,1.50
2023-01-20T05:44:36.647Z,1.50
2023-01-20T05:45:36.341Z,1.47
2023-01-20T05:46:36.430Z,1.44
2023-01-20T05:47:36.308Z,1.44
2023-01-20T05:48:36.279Z,1.43
2023-01-20T05:49:36.305Z,1.44
2023-01-20T05:50:36.284Z,1.44
2023-01-20T05:51:36.642Z,1.44
2023-01-20T05:52:36.239Z,1.46
2023-01-20T05:53:36.230Z,1.44
2023-01-20T05:54:36.229Z,1.44
2023-01-20T05:55:36.228Z,1.44
2023-01-20T05:56:36.250Z,1.44
2023-01-20T05:57:36.214Z,1.44
2023-01-20T05:58:36.198Z,1.44
2023-01-20T05:59:36.191Z,1.43
2023-01-20T06:00:36.203Z,1.42
2023-01-20T06:01:36.555Z,1.43
2023-01-20T06:02:36.218Z,1.42
2023-01-20T06:03:36.299Z,1.43
2023-01-20T06:04:36.120Z,1.42
2023-01-20T06:05:36.119Z,1.43
2023-01-20T06:06:36.136Z,1.43
2023-01-20T06:07:36.092Z,1.43
2023-01-20T06:08:36.086Z,1.44
2023-01-20T06:09:36.120Z,1.44
2023-01-20T06:10:36.060Z,1.43
2023-01-20T06:11:36.075Z,1.44
2023-01-20T06:12:36.067Z,1.44
2023-01-20T06:13:36.321Z,1.43
2023-01-20T06:14:36.025Z,1.44
2023-01-20T06:15:36.043Z,1.43
2023-01-20T06:16:36.009Z,1.40
2023-01-20T06:17:36.006Z,1.42
2023-01-20T06:18:36.011Z,1.42
2023-01-20T06:19:35.974Z,1.43
2023-01-20T06:20:36.260Z,1.44
2023-01-20T06:21:35.998Z,1.43
2023-01-20T06:22:35.951Z,1.43
2023-01-20T06:23:35.929Z,1.40
2023-01-20T06:24:35.954Z,1.42
2023-01-20T06:25:35.933Z,1.43
2023-01-20T06:26:35.918Z,1.43
2023-01-20T06:27:36.207Z,1.40
2023-01-20T06:28:35.909Z,1.42
2023-01-20T06:29:35.906Z,1.43
2023-01-20T06:30:35.887Z,1.44
2023-01-20T06:31:35.873Z,1.43
2023-01-20T06:32:35.911Z,1.44
2023-01-20T06:33:35.860Z,1.46
2023-01-20T06:34:36.110Z,1.44
2023-01-20T06:35:35.879Z,1.44
2023-01-20T06:36:35.798Z,1.44
2023-01-20T06:37:35.799Z,1.44
2023-01-20T06:38:35.797Z,1.43
2023-01-20T06:39:35.795Z,1.47
2023-01-20T06:40:35.771Z,1.46
2023-01-20T06:41:36.028Z,1.47
2023-01-20T06:42:36.538Z,1.50
2023-01-20T06:43:35.780Z,1.46
2023-01-20T06:44:35.747Z,1.44
2023-01-20T06:45:35.730Z,1.44
2023-01-20T06:46:35.749Z,1.46
2023-01-20T06:47:35.703Z,1.47
2023-01-20T06:48:36.002Z,1.52
2023-01-20T06:49:35.718Z,1.52
2023-01-20T06:50:35.690Z,1.52
2023-01-20T06:51:35.750Z,1.51
2023-01-20T06:52:35.660Z,1.50
2023-01-20T06:53:35.630Z,1.46
2023-01-20T06:54:35.639Z,1.43
2023-01-20T06:55:35.892Z,1.43
2023-01-20T06:56:35.598Z,1.43
2023-01-20T06:57:35.675Z,1.44
2023-01-20T06:58:35.579Z,1.44
2023-01-20T06:59:35.581Z,1.43
2023-01-20T07:00:35.622Z,1.42
2023-01-20T07:01:35.632Z,1.43
2023-01-20T07:02:35.899Z,1.44
2023-01-20T07:03:35.577Z,1.43
2023-01-20T07:04:35.526Z,1.43
2023-01-20T07:05:35.506Z,1.44
2023-01-20T07:06:35.503Z,1.43
2023-01-20T07:07:35.508Z,1.44
2023-01-20T07:08:35.482Z,1.44
2023-01-20T07:09:35.838Z,1.46
2023-01-20T07:10:35.461Z,1.46
2023-01-20T07:11:35.458Z,1.46
2023-01-20T07:12:35.448Z,1.47
2023-01-20T07:13:35.478Z,1.46
2023-01-20T07:14:35.426Z,1.50
2023-01-20T07:15:35.444Z,1.47
2023-01-20T07:16:35.752Z,1.50
2023-01-20T07:17:35.395Z,1.50
2023-01-20T07:18:35.401Z,1.51
2023-01-20T07:19:35.365Z,1.50
2023-01-20T07:20:35.355Z,1.47
2023-01-20T07:21:35.375Z,1.47
2023-01-20T07:22:35.377Z,1.46
2023-01-20T07:23:35.653Z,1.46
2023-01-20T07:24:35.318Z,1.46
2023-01-20T07:25:35.312Z,1.47
2023-01-20T07:26:35.340Z,1.47
2023-01-20T07:27:35.385Z,1.46
2023-01-20T07:28:35.295Z,1.50
2023-01-20T07:29:35.283Z,1.47
2023-01-20T07:30:35.632Z,1.46
2023-01-20T07:31:35.303Z,1.46
2023-01-20T07:32:35.236Z,1.50
2023-01-20T07:33:35.276Z,1.47
2023-01-20T07:34:35.254Z,1.47
2023-01-20T07:35:35.238Z,1.44
2023-01-20T07:36:35.261Z,1.47
2023-01-20T07:37:35.470Z,1.47
2023-01-20T07:38:35.250Z,1.50
2023-01-20T07:39:35.209Z,1.51
2023-01-20T07:40:35.163Z,1.51
2023-01-20T07:41:35.194Z,1.52
2023-01-20T07:42:35.139Z,1.51
2023-01-20T07:43:35.175Z,1.47
2023-01-20T07:44:35.415Z,1.51
2023-01-20T07:45:35.190Z,1.50
2023-01-20T07:46:35.142Z,1.50
2023-01-20T07:47:35.080Z,1.44
2023-01-20T07:48:35.096Z,1.51
2023-01-20T07:49:35.109Z,1.52
2023-01-20T07:50:35.114Z,1.50
2023-01-20T07:51:35.400Z,1.52
2023-01-20T07:52:35.077Z,1.51
2023-01-20T07:53:35.045Z,1.52
2023-01-20T07:54:35.072Z,1.51
2023-01-20T07:55:35.031Z,1.51
2023-01-20T07:56:35.011Z,1.52
2023-01-20T07:57:35.082Z,1.52
2023-01-20T07:58:35.253Z,1.55
2023-01-20T07:59:35.016Z,1.55
2023-01-20T08:00:35.024Z,1.55
2023-01-20T08:01:35.110Z,1.58
2023-01-20T08:02:35.013Z,1.58
2023-01-20T08:03:34.972Z,1.55
2023-01-20T08:04:34.903Z,1.57
2023-01-20T08:05:35.242Z,1.60
2023-01-20T08:06:34.947Z,1.58
2023-01-20T08:07:34.936Z,1.60
2023-01-20T08:08:34.885Z,1.60
2023-01-20T08:09:34.970Z,1.60
2023-01-20T08:10:34.955Z,1.61
2023-01-20T08:11:34.869Z,1.57
2023-01-20T08:12:35.205Z,1.57
2023-01-20T08:13:34.912Z,1.58
2023-01-20T08:14:37.661Z,1.60
2023-01-20T08:15:34.895Z,1.60
2023-01-20T08:16:34.896Z,1.61
2023-01-20T08:17:34.898Z,1.62
2023-01-20T08:18:34.855Z,1.64
2023-01-20T08:19:35.174Z,1.65
2023-01-20T08:20:34.780Z,1.68
2023-01-20T08:21:34.877Z,1.68
2023-01-20T08:22:34.789Z,1.65
2023-01-20T08:23:34.749Z,1.65
2023-01-20T08:24:34.719Z,1.68
2023-01-20T08:25:34.789Z,1.68
2023-01-20T08:26:35.045Z,1.69
2023-01-20T08:27:34.781Z,1.69
2023-01-20T08:28:34.675Z,1.71
2023-01-20T08:29:34.683Z,1.71
2023-01-20T08:30:34.826Z,1.71
2023-01-20T08:31:34.950Z,1.69
2023-01-20T08:32:34.687Z,1.71
2023-01-20T08:33:35.019Z,1.69
2023-01-20T08:34:34.716Z,1.68
2023-01-20T08:35:34.645Z,1.72
2023-01-20T08:36:34.770Z,1.72
2023-01-20T08:37:34.720Z,1.75
2023-01-20T08:38:34.618Z,1.78
2023-01-20T08:39:34.632Z,1.76
2023-01-20T08:40:34.880Z,1.79
2023-01-20T08:41:34.532Z,1.76
2023-01-20T08:42:34.647Z,1.78
2023-01-20T08:43:34.534Z,1.76
2023-01-20T08:44:34.526Z,1.78
2023-01-20T08:45:35.042Z,1.78
2023-01-20T08:46:34.553Z,1.78
2023-01-20T08:47:34.847Z,1.79
2023-01-20T08:48:34.491Z,1.85
2023-01-20T08:49:34.503Z,1.83
2023-01-20T08:50:34.604Z,1.85
2023-01-20T08:51:34.546Z,1.87
2023-01-20T08:52:34.475Z,1.87
2023-01-20T08:53:34.429Z,1.89
2023-01-20T08:54:34.731Z,1.89
2023-01-20T08:55:34.433Z,1.89
2023-01-20T08:56:34.446Z,1.87
2023-01-20T08:57:34.509Z,1.89
2023-01-20T08:58:34.526Z,1.87
2023-01-20T08:59:34.370Z,1.87
2023-01-20T09:00:34.404Z,1.90
2023-01-20T09:01:34.686Z,1.90
2023-01-20T09:02:34.399Z,1.90
2023-01-20T09:03:34.459Z,1.93
2023-01-20T09:04:34.403Z,1.94
2023-01-20T09:05:34.320Z,1.97
2023-01-20T09:06:34.315Z,1.97
2023-01-20T09:07:34.302Z,1.97
2023-01-20T09:08:34.603Z,1.94
2023-01-20T09:09:34.433Z,1.98
2023-01-20T09:10:34.290Z,1.98
2023-01-20T09:11:34.346Z,1.94
2023-01-20T09:12:34.222Z,1.99
2023-01-20T09:13:34.295Z,1.99
2023-01-20T09:14:34.289Z,2.02
2023-01-20T09:15:35.128Z,2.08
2023-01-20T09:16:34.306Z,2.09
2023-01-20T09:17:34.293Z,2.08
2023-01-20T09:18:34.282Z,2.08
2023-01-20T09:19:34.233Z,2.09
2023-01-20T09:20:34.238Z,2.06
2023-01-20T09:21:34.696Z,2.10
2023-01-20T09:22:34.170Z,2.08
2023-01-20T09:23:34.178Z,2.09
2023-01-20T09:24:34.144Z,2.08
2023-01-20T09:25:34.182Z,2.09
2023-01-20T09:26:35.961Z,2.09
2023-01-20T09:27:34.258Z,2.09
2023-01-20T09:28:34.146Z,2.09
2023-01-20T09:29:34.097Z,2.13
2023-01-20T09:30:34.114Z,2.15
2023-01-20T09:31:34.112Z,2.16
2023-01-20T09:32:34.140Z,2.17
2023-01-20T09:33:34.353Z,2.16
2023-01-20T09:34:34.105Z,2.15
2023-01-20T09:35:34.069Z,2.15
2023-01-20T09:36:34.048Z,2.16
2023-01-20T09:37:33.958Z,2.15
2023-01-20T09:38:34.092Z,2.16
2023-01-20T09:39:34.098Z,2.16
2023-01-20T09:40:34.080Z,2.15
2023-01-20T09:41:33.926Z,2.16
2023-01-20T09:42:33.905Z,2.17
2023-01-20T09:43:33.994Z,2.19
2023-01-20T09:44:33.940Z,2.20
2023-01-20T09:45:33.967Z,2.23
2023-01-20T09:46:33.991Z,2.27
2023-01-20T09:47:33.943Z,2.23
2023-01-20T09:48:33.911Z,2.20
2023-01-20T09:49:33.875Z,2.22
2023-01-20T09:50:33.950Z,2.23
2023-01-20T09:51:34.261Z,2.23
2023-01-20T09:52:33.913Z,2.20
2023-01-20T09:53:33.890Z,2.22
2023-01-20T09:54:33.787Z,2.26
2023-01-20T09:55:33.851Z,2.27
2023-01-20T09:56:33.855Z,2.28
2023-01-20T09:57:33.911Z,2.28
2023-01-20T09:58:34.094Z,2.28
2023-01-20T09:59:33.805Z,2.33
2023-01-20T10:00:33.820Z,2.33
2023-01-20T10:01:33.773Z,2.31
2023-01-20T10:02:33.804Z,2.27
2023-01-20T10:03:33.939Z,2.22
2023-01-20T10:04:33.726Z,2.16
2023-01-20T10:05:34.012Z,2.12
2023-01-20T10:06:33.862Z,2.09
2023-01-20T10:07:33.691Z,2.15
2023-01-20T10:08:33.696Z,2.13
2023-01-20T10:09:33.876Z,2.15
2023-01-20T10:10:33.708Z,2.15
2023-01-20T10:11:33.749Z,2.13
2023-01-20T10:12:33.992Z,2.15
2023-01-20T10:13:33.660Z,2.16
2023-01-20T10:14:33.576Z,2.17
2023-01-20T10:15:33.696Z,2.19
2023-01-20T10:16:33.627Z,2.16
2023-01-20T10:17:33.650Z,2.20
2023-01-20T10:18:33.578Z,2.20
2023-01-20T10:19:33.857Z,2.22
2023-01-20T10:20:33.652Z,2.23
2023-01-20T10:21:33.641Z,2.27
2023-01-20T10:22:33.538Z,2.30
2023-01-20T10:23:33.549Z,2.30
2023-01-20T10:24:33.559Z,2.31
2023-01-20T10:25:33.504Z,2.30
2023-01-20T10:26:33.889Z,2.30
2023-01-20T10:27:33.605Z,2.30
2023-01-20T10:28:33.516Z,2.34
2023-01-20T10:29:33.527Z,2.38
2023-01-20T10:30:33.581Z,2.34
2023-01-20T10:31:33.592Z,2.31
2023-01-20T10:32:33.531Z,2.30
2023-01-20T10:33:33.884Z,2.34
2023-01-20T10:34:33.469Z,2.34
2023-01-20T10:35:33.443Z,2.37
2023-01-20T10:36:33.506Z,2.35
2023-01-20T10:37:33.361Z,2.35
2023-01-20T10:38:33.415Z,2.38
2023-01-20T10:39:33.488Z,2.38
2023-01-20T10:40:35.358Z,2.40
2023-01-20T10:41:33.345Z,2.41
2023-01-20T10:42:33.319Z,2.44
2023-01-20T10:43:33.326Z,2.51
2023-01-20T10:44:33.278Z,2.48
2023-01-20T10:45:33.375Z,2.44
2023-01-20T10:46:33.499Z,2.41
2023-01-20T10:47:33.682Z,2.44
2023-01-20T10:48:33.255Z,2.45
2023-01-20T10:49:33.327Z,2.44
2023-01-20T10:50:33.274Z,2.46
2023-01-20T10:51:33.307Z,2.49
2023-01-20T10:52:33.304Z,2.44
2023-01-20T10:53:33.317Z,2.40
2023-01-20T10:54:33.522Z,2.35
2023-01-20T10:55:33.197Z,2.35
2023-01-20T10:56:33.272Z,2.34
2023-01-20T10:57:33.365Z,2.37
2023-01-20T10:58:33.195Z,2.38
2023-01-20T10:59:33.119Z,2.44
2023-01-20T11:00:33.172Z,2.44
2023-01-20T11:01:33.560Z,2.48
2023-01-20T11:02:33.263Z,2.51
2023-01-20T11:03:33.216Z,2.51
2023-01-20T11:04:33.117Z,2.52
2023-01-20T11:05:33.071Z,2.53
2023-01-20T11:06:33.092Z,2.52
2023-01-20T11:07:33.231Z,2.53
2023-01-20T11:08:33.487Z,2.53
2023-01-20T11:09:33.259Z,2.52
2023-01-20T11:10:32.999Z,2.52
2023-01-20T11:11:33.013Z,2.55
2023-01-20T11:12:33.187Z,2.58
2023-01-20T11:13:33.037Z,2.58
2023-01-20T11:14:33.002Z,2.58
2023-01-20T11:15:33.374Z,2.61
2023-01-20T11:16:33.207Z,2.59
2023-01-20T11:17:33.030Z,2.63
2023-01-20T11:18:32.983Z,2.63
2023-01-20T11:19:32.953Z,2.61
2023-01-20T11:20:32.867Z,2.61
2023-01-20T11:21:32.978Z,2.61
2023-01-20T11:22:33.266Z,2.58
2023-01-20T11:23:33.556Z,2.58
2023-01-20T11:24:32.927Z,2.56
2023-01-20T11:25:32.869Z,2.56
2023-01-20T11:26:32.883Z,2.56
2023-01-20T11:27:32.960Z,2.56
2023-01-20T11:28:32.890Z,2.56
2023-01-20T11:29:33.186Z,2.55
2023-01-20T11:30:32.960Z,2.56
2023-01-20T11:31:32.796Z,2.58
2023-01-20T11:32:32.816Z,2.61
2023-01-20T11:33:33.060Z,2.63
2023-01-20T11:34:32.839Z,2.67
2023-01-20T11:35:32.828Z,2.69
2023-01-20T11:36:33.060Z,2.70
2023-01-20T11:37:32.748Z,2.70
2023-01-20T11:38:32.766Z,2.69
2023-01-20T11:39:32.847Z,2.71
2023-01-20T11:40:32.817Z,2.71
2023-01-20T11:41:32.682Z,2.69
2023-01-20T11:42:32.782Z,2.71
2023-01-20T11:43:32.985Z,2.70
2023-01-20T11:44:32.627Z,2.70
2023-01-20T11:45:32.772Z,2.67
2023-01-20T11:46:32.755Z,2.67
2023-01-20T11:47:32.682Z,2.69
2023-01-20T11:48:32.604Z,2.73
2023-01-20T11:49:32.751Z,2.74
2023-01-20T11:50:32.963Z,2.81
2023-01-20T11:51:33.458Z,2.79
2023-01-20T11:52:32.638Z,2.81
2023-01-20T11:53:32.672Z,2.81
2023-01-20T11:54:32.620Z,2.77
2023-01-20T11:55:33.206Z,2.79
2023-01-20T11:56:32.554Z,2.79
2023-01-20T11:57:32.881Z,2.81
2023-01-20T11:58:32.503Z,2.87
2023-01-20T11:59:32.538Z,2.89
2023-01-20T12:00:32.515Z,2.94
2023-01-20T12:01:32.642Z,2.97
2023-01-20T12:02:32.577Z,2.98
2023-01-20T12:03:32.553Z,2.95
2023-01-20T12:04:32.919Z,2.94
2023-01-20T12:05:32.432Z,2.88
2023-01-20T12:06:32.513Z,2.87
2023-01-20T12:07:32.460Z,2.87
2023-01-20T12:08:32.504Z,2.91
2023-01-20T12:09:32.492Z,2.98
2023-01-20T12:10:32.423Z,3.05
2023-01-20T12:11:32.662Z,3.07
2023-01-20T12:12:33.892Z,3.12
2023-01-20T12:13:32.462Z,3.12
2023-01-20T12:14:32.411Z,3.13
2023-01-20T12:15:32.552Z,3.12
2023-01-20T12:16:32.520Z,3.13
2023-01-20T12:17:32.306Z,3.12
2023-01-20T12:18:32.681Z,3.10
2023-01-20T12:19:32.281Z,3.09
2023-01-20T12:20:35.473Z,3.09
2023-01-20T12:21:32.408Z,3.10
2023-01-20T12:22:32.331Z,3.10
2023-01-20T12:23:32.320Z,3.12
2023-01-20T12:24:42.597Z,3.12
2023-01-20T12:25:32.418Z,3.06
2023-01-20T12:26:32.268Z,3.07
2023-01-20T12:27:32.385Z,3.07
2023-01-20T12:28:32.211Z,3.10
2023-01-20T12:29:32.240Z,3.13
2023-01-20T12:30:32.284Z,3.13
2023-01-20T12:31:32.573Z,3.16
2023-01-20T12:32:32.169Z,3.13
2023-01-20T12:33:32.308Z,3.13
2023-01-20T12:34:32.291Z,3.13
2023-01-20T12:35:32.147Z,3.15
2023-01-20T12:36:32.170Z,3.16
2023-01-20T12:37:32.166Z,3.18
2023-01-20T12:38:32.169Z,3.21
2023-01-20T12:39:32.100Z,3.23
2023-01-20T12:40:32.163Z,3.25
2023-01-20T12:41:32.137Z,3.25
2023-01-20T12:42:32.109Z,3.28
2023-01-20T12:43:32.494Z,3.28
2023-01-20T12:44:32.122Z,3.25
2023-01-20T12:45:32.159Z,3.20
2023-01-20T12:46:32.151Z,3.20
2023-01-20T12:47:32.036Z,3.21
2023-01-20T12:48:32.060Z,3.21
2023-01-20T12:49:32.016Z,3.23
2023-01-20T12:50:32.050Z,3.21
2023-01-20T12:51:32.132Z,3.24
2023-01-20T12:52:32.143Z,3.23
2023-01-20T12:53:32.038Z,3.23
2023-01-20T12:54:47.510Z,3.23
2023-01-20T12:55:32.177Z,3.24
2023-01-20T12:56:32.480Z,3.25
2023-01-20T12:57:31.948Z,3.25
2023-01-20T12:58:31.939Z,3.21
2023-01-20T12:59:31.919Z,3.15
2023-01-20T13:00:32.260Z,3.10
2023-01-20T13:01:32.294Z,3.09
2023-01-20T13:02:31.953Z,3.07
2023-01-20T13:03:31.979Z,3.05
2023-01-20T13:04:31.849Z,3.06
2023-01-20T13:05:31.944Z,3.06
2023-01-20T13:06:31.847Z,3.10
2023-01-20T13:07:31.848Z,3.09
2023-01-20T13:08:32.222Z,3.07
2023-01-20T13:09:31.913Z,3.07
2023-01-20T13:10:31.774Z,3.09
2023-01-20T13:11:31.819Z,3.13
2023-01-20T13:12:31.805Z,3.18
2023-01-20T13:13:31.759Z,3.20
2023-01-20T13:14:32.570Z,3.23
2023-01-20T13:15:32.161Z,3.25
2023-01-20T13:16:31.810Z,3.28
2023-01-20T13:17:31.739Z,3.30
2023-01-20T13:18:31.677Z,3.34